Time;durP1;ratioP1;P1;durP2;ratioP2;P2;SDS_P1;SDS_P2;PMS_P1;PMS_P2;Temp;Humidity;BMP_temperature;BMP_pressure;BME280_temperature;BME280_humidity;BME280_pressure;Samples;Min_cycle;Max_cycle;Signal;HPM_P1;HPM_P2
2023/01/07 00:00:52;;;;;;;43.40;30.75;;;10.00;99.90;;;;;;4936067;29;20071;-78
2023/01/07 00:03:18;;;;;;;45.53;31.92;;;10.00;99.90;;;;;;4935810;29;20460;-78
2023/01/07 00:05:44;;;;;;;44.38;30.98;;;10.00;99.90;;;;;;4919870;29;20051;-78
2023/01/07 00:08:11;;;;;;;42.90;30.23;;;10.00;99.90;;;;;;4919280;29;20087;-78
2023/01/07 00:10:37;;;;;;;44.60;31.35;;;10.00;99.90;;;;;;4935537;29;20058;-78
2023/01/07 00:13:02;;;;;;;46.05;32.88;;;10.10;99.90;;;;;;4935527;29;20126;-78
2023/01/07 00:15:28;;;;;;;41.75;29.88;;;10.10;99.90;;;;;;4935529;29;20488;-77
2023/01/07 00:17:54;;;;;;;45.70;32.08;;;10.10;99.90;;;;;;4937997;29;20056;-78
2023/01/07 00:20:20;;;;;;;43.38;31.63;;;10.10;99.90;;;;;;4936608;29;20051;-78
2023/01/07 00:22:45;;;;;;;46.33;32.03;;;10.20;99.90;;;;;;4935026;29;20496;-79
2023/01/07 00:25:11;;;;;;;45.58;31.80;;;10.20;99.90;;;;;;4919957;29;20476;-79
2023/01/07 00:27:37;;;;;;;44.65;31.65;;;10.20;99.90;;;;;;4916530;29;20063;-79
2023/01/07 00:30:03;;;;;;;46.53;33.10;;;10.10;99.90;;;;;;4934412;29;20079;-78
2023/01/07 00:35:22;;;;;;;42.40;30.55;;;10.20;99.90;;;;;;4935062;29;20059;-80
2023/01/07 00:37:50;;;;;;;42.95;30.73;;;10.20;99.90;;;;;;4918415;29;20108;-78
2023/01/07 00:40:16;;;;;;;43.15;30.77;;;10.30;99.90;;;;;;4919354;29;20392;-79
2023/01/07 00:42:54;;;;;;;45.38;31.90;;;10.30;99.90;;;;;;4945194;29;20098;-77
2023/01/07 00:45:24;;;;;;;44.63;32.83;;;10.30;99.90;;;;;;4915598;29;20067;-78
2023/01/07 00:47:52;;;;;;;45.55;32.30;;;10.40;99.90;;;;;;4926693;29;20066;-78
2023/01/07 00:50:29;;;;;;;42.17;30.90;;;10.30;99.90;;;;;;4934935;29;20485;-80
2023/01/07 00:52:55;;;;;;;43.90;33.00;;;10.30;99.90;;;;;;4934078;29;20052;-79
2023/01/07 00:55:22;;;;;;;43.95;32.53;;;10.30;99.90;;;;;;4932045;29;20051;-79
2023/01/07 00:57:47;;;;;;;46.25;33.38;;;10.30;99.90;;;;;;4934892;29;20071;-78
2023/01/07 01:00:15;;;;;;;48.80;34.45;;;10.40;99.90;;;;;;4933453;29;20055;-78
2023/01/07 01:02:41;;;;;;;43.78;32.25;;;10.30;99.90;;;;;;4934821;29;20052;-76
2023/01/07 01:05:08;;;;;;;46.13;33.45;;;10.40;99.90;;;;;;4935062;29;20489;-78
2023/01/07 01:07:34;;;;;;;51.85;37.13;;;10.40;99.90;;;;;;4932970;29;20056;-76
2023/01/07 01:10:01;;;;;;;46.97;34.78;;;10.40;99.90;;;;;;4936421;29;20128;-77
2023/01/07 01:12:27;;;;;;;50.33;37.03;;;10.40;99.90;;;;;;4934618;29;20055;-77
2023/01/07 01:14:53;;;;;;;59.05;38.78;;;10.40;99.90;;;;;;4934794;29;20062;-76
2023/01/07 01:17:20;;;;;;;46.60;34.70;;;10.40;99.90;;;;;;4934640;29;20044;-76
2023/01/07 01:19:46;;;;;;;52.55;38.45;;;10.40;99.90;;;;;;4934025;29;20048;-77
2023/01/07 01:22:11;;;;;;;49.65;36.28;;;10.40;99.90;;;;;;4933755;29;20062;-78
2023/01/07 01:24:37;;;;;;;51.50;38.00;;;10.40;99.90;;;;;;4936011;29;20062;-77
2023/01/07 01:27:03;;;;;;;49.30;35.38;;;10.40;99.90;;;;;;4946846;29;20124;-75
2023/01/07 01:29:29;;;;;;;50.65;36.13;;;10.40;99.90;;;;;;4934273;29;20480;-76
2023/01/07 01:31:54;;;;;;;50.17;36.63;;;10.50;99.90;;;;;;4934724;29;20523;-76
2023/01/07 01:34:20;;;;;;;49.15;35.75;;;10.50;99.90;;;;;;4935481;29;20051;-78
2023/01/07 01:36:46;;;;;;;46.22;34.10;;;10.40;99.90;;;;;;4930976;29;20181;-77
2023/01/07 01:39:12;;;;;;;49.03;36.00;;;10.50;99.90;;;;;;4924970;29;20544;-78
2023/01/07 01:41:37;;;;;;;47.35;35.55;;;10.50;99.90;;;;;;4917882;29;20568;-77
2023/01/07 01:44:44;;;;;;;49.10;34.33;;;10.50;99.90;;;;;;4936293;29;20392;-78
2023/01/07 01:47:20;;;;;;;46.90;34.00;;;10.50;99.90;;;;;;4920912;29;20059;-77
2023/01/07 01:49:53;;;;;;;44.75;33.92;;;10.50;99.90;;;;;;4937677;29;20134;-78
2023/01/07 01:52:23;;;;;;;44.40;32.83;;;10.60;99.90;;;;;;4920296;29;20074;-78
2023/01/07 01:54:55;;;;;;;47.88;34.92;;;10.60;99.90;;;;;;4937824;29;20055;-77
2023/01/07 01:57:22;;;;;;;48.38;35.30;;;10.50;99.90;;;;;;4951816;29;20062;-77
2023/01/07 01:59:50;;;;;;;46.42;34.17;;;10.50;99.90;;;;;;4945776;29;20554;-78
2023/01/07 02:02:21;;;;;;;45.80;33.40;;;10.50;99.90;;;;;;4921043;29;20447;-77
2023/01/07 02:04:48;;;;;;;43.83;32.47;;;10.40;99.90;;;;;;4937718;29;20055;-77
2023/01/07 02:07:17;;;;;;;45.72;33.97;;;10.50;99.90;;;;;;4935639;28;20109;-77
2023/01/07 02:09:44;;;;;;;46.58;33.95;;;10.50;99.90;;;;;;4947916;29;20396;-76
2023/01/07 02:12:39;;;;;;;45.40;33.38;;;10.50;99.90;;;;;;4940426;28;20066;-77
2023/01/07 02:15:39;;;;;;;45.78;32.22;;;10.50;99.90;;;;;;4941749;29;20051;-78
2023/01/07 02:18:07;;;;;;;44.30;32.60;;;10.50;99.90;;;;;;4926120;28;20059;-79
2023/01/07 02:20:42;;;;;;;43.88;32.25;;;10.50;99.90;;;;;;4941370;29;20050;-79
2023/01/07 02:23:57;;;;;;;44.83;33.20;;;10.50;99.90;;;;;;4939537;29;20047;-78
2023/01/07 02:26:59;;;;;;;44.95;33.10;;;10.50;99.90;;;;;;4940541;28;20049;-79
2023/01/07 02:30:03;;;;;;;49.58;35.90;;;10.50;99.90;;;;;;4940549;29;20051;-77
2023/01/07 02:32:31;;;;;;;44.83;31.50;;;10.50;99.90;;;;;;4931854;29;20134;-78
2023/01/07 02:35:29;;;;;;;47.78;33.65;;;10.50;99.90;;;;;;4940589;28;20055;-78
2023/01/07 02:38:14;;;;;;;47.38;34.22;;;10.50;99.90;;;;;;4938977;29;20048;-78
2023/01/07 02:41:10;;;;;;;47.42;34.10;;;10.50;99.90;;;;;;4940523;29;20130;-78
2023/01/07 02:44:04;;;;;;;49.70;35.95;;;10.50;99.90;;;;;;4897058;29;20499;-78
2023/01/07 02:47:12;;;;;;;48.65;33.72;;;10.90;99.90;;;;;;4937880;28;20389;-77
2023/01/07 02:49:38;;;;;;;51.35;35.42;;;10.50;99.90;;;;;;4939530;29;20074;-78
2023/01/07 02:52:26;;;;;;;46.13;35.22;;;10.40;99.90;;;;;;4939951;29;20208;-76
2023/01/07 02:55:07;;;;;;;42.28;32.80;;;10.40;99.90;;;;;;4933655;28;20192;-77
2023/01/07 02:57:48;;;;;;;42.15;33.03;;;10.40;99.90;;;;;;4945390;28;20043;-79
2023/01/07 03:00:22;;;;;;;42.10;31.88;;;10.40;99.90;;;;;;4940179;29;20051;-78
2023/01/07 03:03:20;;;;;;;44.20;33.28;;;10.40;99.90;;;;;;4939624;28;20134;-78
2023/01/07 03:06:13;;;;;;;39.08;30.58;;;10.50;99.90;;;;;;4968948;28;20043;-77
2023/01/07 03:08:48;;;;;;;39.28;30.95;;;10.50;99.90;;;;;;4927931;29;20051;-78
2023/01/07 03:11:15;;;;;;;39.33;29.67;;;10.40;99.90;;;;;;4939851;28;20448;-77
2023/01/07 03:14:12;;;;;;;35.90;28.92;;;10.50;99.90;;;;;;4939866;29;20055;-78
2023/01/07 03:16:42;;;;;;;34.47;27.35;;;10.50;99.90;;;;;;4925291;28;20142;-78
2023/01/07 03:19:15;;;;;;;39.17;29.67;;;10.50;99.90;;;;;;4923851;29;20075;-77
2023/01/07 03:21:41;;;;;;;37.67;29.90;;;10.50;99.90;;;;;;4939407;28;20126;-78
2023/01/07 03:24:08;;;;;;;36.30;29.85;;;10.50;99.90;;;;;;4938796;29;20082;-77
2023/01/07 03:26:41;;;;;;;34.25;28.88;;;10.50;99.90;;;;;;4939653;29;20484;-77
2023/01/07 03:29:10;;;;;;;38.00;28.70;;;10.50;99.90;;;;;;4923933;29;20059;-77
2023/01/07 03:31:40;;;;;;;38.03;30.40;;;10.50;99.90;;;;;;4937494;29;20046;-77
2023/01/07 03:34:14;;;;;;;37.17;29.75;;;10.50;99.90;;;;;;4924459;29;20051;-78
2023/01/07 03:36:44;;;;;;;35.70;28.50;;;10.40;99.90;;;;;;4939587;28;20388;-78
2023/01/07 03:39:11;;;;;;;36.10;28.42;;;10.40;99.90;;;;;;4922126;29;20127;-79
2023/01/07 03:44:22;;;;;;;35.85;29.15;;;10.40;99.90;;;;;;4937152;29;20407;-78
2023/01/07 03:46:49;;;;;;;35.17;28.58;;;10.40;99.90;;;;;;4955217;28;20051;-78
2023/01/07 03:49:15;;;;;;;29.48;25.05;;;10.40;99.90;;;;;;4939263;28;20059;-77
2023/01/07 03:51:41;;;;;;;34.35;27.48;;;10.40;99.90;;;;;;4939420;29;20475;-78
2023/01/07 03:54:06;;;;;;;34.88;26.73;;;10.40;99.90;;;;;;4938220;28;20102;-77
2023/01/07 03:56:32;;;;;;;30.60;24.63;;;10.40;99.90;;;;;;4956482;28;20487;-78
2023/01/07 03:58:58;;;;;;;31.08;25.02;;;10.40;99.90;;;;;;4955821;28;20412;-78
2023/01/07 04:01:24;;;;;;;31.42;25.00;;;10.40;99.90;;;;;;4939570;29;20395;-77
2023/01/07 04:03:49;;;;;;;31.20;25.48;;;10.40;99.90;;;;;;4938916;29;20090;-77
2023/01/07 04:06:15;;;;;;;29.08;24.38;;;10.30;99.90;;;;;;4938885;29;20138;-77
2023/01/07 04:08:41;;;;;;;26.83;22.98;;;10.40;99.90;;;;;;4935112;29;20047;-78
2023/01/07 04:11:06;;;;;;;31.98;23.98;;;10.40;99.90;;;;;;4965202;28;20058;-77
2023/01/07 04:13:32;;;;;;;26.15;21.73;;;10.30;99.90;;;;;;4949726;29;20130;-78
2023/01/07 04:15:58;;;;;;;30.73;23.48;;;10.30;99.90;;;;;;4938544;28;20043;-78
2023/01/07 04:18:23;;;;;;;27.85;21.92;;;10.30;99.90;;;;;;4942107;29;20039;-78
2023/01/07 04:20:49;;;;;;;30.63;22.70;;;10.30;99.90;;;;;;4946117;29;20086;-77
2023/01/07 04:23:15;;;;;;;28.92;22.38;;;10.30;99.90;;;;;;4937300;29;20042;-78
2023/01/07 04:25:41;;;;;;;27.05;21.40;;;10.30;99.90;;;;;;4955909;28;20119;-77
2023/01/07 04:28:07;;;;;;;25.75;20.58;;;10.30;99.90;;;;;;4938204;28;20051;-77
2023/01/07 04:30:33;;;;;;;27.83;22.38;;;10.30;99.90;;;;;;4943816;29;20051;-78
2023/01/07 04:32:59;;;;;;;27.50;21.27;;;10.30;99.90;;;;;;4953825;28;20070;-76
2023/01/07 04:35:24;;;;;;;28.05;20.40;;;10.30;99.90;;;;;;4933076;29;20468;-78
2023/01/07 04:37:50;;;;;;;28.00;21.58;;;10.30;99.90;;;;;;4946216;28;20121;-77
2023/01/07 04:40:16;;;;;;;24.50;20.58;;;10.30;99.90;;;;;;4938391;29;20043;-77
2023/01/07 04:42:42;;;;;;;24.52;19.50;;;10.30;99.90;;;;;;4938444;29;20058;-77
2023/01/07 04:45:08;;;;;;;23.35;18.67;;;10.30;99.90;;;;;;4944303;28;20066;-78
2023/01/07 04:47:33;;;;;;;24.23;19.23;;;10.30;99.90;;;;;;4938109;29;20127;-77
2023/01/07 04:49:59;;;;;;;24.05;19.50;;;10.20;99.90;;;;;;4955105;28;20454;-76
2023/01/07 04:52:25;;;;;;;23.80;17.92;;;10.30;99.90;;;;;;4954274;28;20061;-77
2023/01/07 04:54:50;;;;;;;22.15;18.08;;;10.30;99.90;;;;;;4938819;29;20480;-76
2023/01/07 04:57:16;;;;;;;22.73;17.95;;;10.30;99.90;;;;;;4921520;28;20377;-77
2023/01/07 04:59:42;;;;;;;21.02;16.58;;;10.20;99.90;;;;;;4938695;29;20085;-76
2023/01/07 05:02:07;;;;;;;21.70;17.33;;;10.30;99.90;;;;;;4954653;28;20506;-77
2023/01/07 05:04:33;;;;;;;20.73;17.60;;;10.20;99.90;;;;;;4938475;29;20055;-77
2023/01/07 05:06:59;;;;;;;20.92;16.65;;;10.20;99.90;;;;;;4954636;28;20126;-77
2023/01/07 05:09:25;;;;;;;20.88;16.83;;;10.20;99.90;;;;;;4954666;28;20046;-76
2023/01/07 05:11:50;;;;;;;20.50;16.30;;;10.20;99.90;;;;;;4906786;29;20051;-77
2023/01/07 05:14:16;;;;;;;21.05;16.15;;;10.20;99.90;;;;;;4937582;28;20047;-77
2023/01/07 05:16:42;;;;;;;22.52;16.27;;;10.30;99.90;;;;;;4948432;29;20399;-77
2023/01/07 05:19:09;;;;;;;19.45;15.40;;;10.20;99.90;;;;;;4921480;28;20047;-78
2023/01/07 05:21:35;;;;;;;19.15;15.02;;;10.20;99.90;;;;;;4931455;29;20515;-77
2023/01/07 05:24:01;;;;;;;18.25;15.52;;;10.30;99.90;;;;;;4930830;29;20047;-77
2023/01/07 05:26:26;;;;;;;20.23;14.95;;;10.30;99.90;;;;;;4937867;29;20127;-77
2023/01/07 05:28:52;;;;;;;17.73;14.65;;;10.30;99.90;;;;;;4937664;29;20106;-77
2023/01/07 05:31:19;;;;;;;18.77;14.13;;;10.30;99.90;;;;;;4906226;28;20551;-77
2023/01/07 05:33:45;;;;;;;18.95;14.88;;;10.20;99.90;;;;;;4954844;28;20538;-77
2023/01/07 05:36:11;;;;;;;17.17;13.60;;;10.30;99.90;;;;;;4937519;28;20058;-77
2023/01/07 05:38:37;;;;;;;18.48;13.73;;;10.30;99.90;;;;;;4936591;29;20168;-77
2023/01/07 05:41:03;;;;;;;18.52;13.70;;;10.30;99.90;;;;;;4937982;29;20076;-77
2023/01/07 05:43:30;;;;;;;18.70;13.32;;;10.20;99.90;;;;;;4921931;29;20101;-77
2023/01/07 05:45:56;;;;;;;19.55;13.30;;;10.20;99.90;;;;;;4937144;29;20062;-76
2023/01/07 05:48:22;;;;;;;18.45;14.32;;;10.20;99.90;;;;;;4953717;28;20503;-77
2023/01/07 05:50:48;;;;;;;18.48;12.93;;;10.10;99.90;;;;;;4942190;29;20097;-77
2023/01/07 05:53:14;;;;;;;17.70;13.13;;;10.20;99.90;;;;;;4939416;29;20507;-77
2023/01/07 05:55:39;;;;;;;17.02;12.05;;;10.20;99.90;;;;;;4940562;29;20099;-77
2023/01/07 05:58:06;;;;;;;15.82;11.27;;;10.20;99.90;;;;;;4924865;29;20111;-77
2023/01/07 06:00:33;;;;;;;19.42;12.55;;;10.20;99.90;;;;;;4940477;29;20051;-76
2023/01/07 06:02:58;;;;;;;15.75;11.55;;;10.20;99.90;;;;;;4940660;29;20467;-76
2023/01/07 06:05:24;;;;;;;14.85;11.60;;;10.20;99.90;;;;;;4937126;29;20087;-76
2023/01/07 06:07:50;;;;;;;16.25;11.57;;;10.20;99.90;;;;;;4939618;29;20044;-78
2023/01/07 06:10:16;;;;;;;16.25;11.40;;;10.10;99.90;;;;;;4942011;29;20436;-78
2023/01/07 06:12:41;;;;;;;15.55;11.05;;;10.20;99.90;;;;;;4940315;29;20461;-77
2023/01/07 06:15:07;;;;;;;16.35;11.35;;;10.20;99.90;;;;;;4950489;29;20052;-76
2023/01/07 06:17:34;;;;;;;14.43;10.70;;;10.20;99.90;;;;;;4938780;29;20048;-77
2023/01/07 06:20:00;;;;;;;15.75;11.35;;;10.20;99.90;;;;;;4948292;28;20051;-77
2023/01/07 06:22:26;;;;;;;16.50;11.77;;;10.20;99.90;;;;;;4910120;29;20056;-77
2023/01/07 06:24:51;;;;;;;16.17;11.65;;;10.10;99.90;;;;;;4940595;29;20044;-77
2023/01/07 06:27:17;;;;;;;15.20;11.75;;;10.10;99.90;;;;;;4941740;29;20413;-77
2023/01/07 06:29:43;;;;;;;16.52;11.35;;;10.10;99.90;;;;;;4940001;29;20052;-77
2023/01/07 06:32:09;;;;;;;17.30;11.45;;;10.10;99.90;;;;;;4941545;29;20052;-75
2023/01/07 06:34:35;;;;;;;14.07;11.23;;;10.10;99.90;;;;;;4937695;29;20051;-76
2023/01/07 06:37:01;;;;;;;13.80;11.25;;;10.00;99.90;;;;;;4939979;29;20465;-77
2023/01/07 06:39:26;;;;;;;14.13;10.70;;;10.00;99.90;;;;;;4923682;29;20047;-77
2023/01/07 06:41:52;;;;;;;14.85;11.82;;;10.00;99.90;;;;;;4940743;29;20540;-74
2023/01/07 06:44:18;;;;;;;13.43;10.38;;;10.00;99.90;;;;;;4939936;29;20059;-78
2023/01/07 06:46:43;;;;;;;15.68;10.30;;;10.10;99.90;;;;;;4941388;29;20055;-77
2023/01/07 06:49:09;;;;;;;14.95;9.70;;;10.10;99.90;;;;;;4955615;28;20044;-77
2023/01/07 06:51:35;;;;;;;13.93;9.82;;;10.10;99.90;;;;;;4940467;29;20044;-77
2023/01/07 06:54:01;;;;;;;14.55;10.77;;;10.10;99.90;;;;;;4939448;29;20122;-77
2023/01/07 06:56:26;;;;;;;14.00;10.85;;;10.10;99.90;;;;;;4939847;29;20134;-77
2023/01/07 06:58:52;;;;;;;13.90;10.60;;;10.10;99.90;;;;;;4938063;29;20044;-77
2023/01/07 07:01:19;;;;;;;13.52;10.40;;;10.10;99.90;;;;;;4937304;29;20079;-77
2023/01/07 07:03:44;;;;;;;13.40;10.55;;;10.00;99.90;;;;;;4936679;29;20055;-76
2023/01/07 07:06:10;;;;;;;14.13;10.27;;;10.00;99.90;;;;;;4938681;29;20082;-78
2023/01/07 07:08:36;;;;;;;12.43;9.35;;;10.00;99.90;;;;;;4947995;29;20055;-77
2023/01/07 07:11:01;;;;;;;12.40;9.27;;;10.00;99.90;;;;;;4938234;29;20135;-77
2023/01/07 07:13:27;;;;;;;11.70;9.05;;;10.10;99.90;;;;;;4937119;29;20132;-77
2023/01/07 07:15:53;;;;;;;12.75;9.10;;;10.10;99.90;;;;;;4936885;29;20135;-77
2023/01/07 07:18:19;;;;;;;11.80;9.27;;;10.00;99.90;;;;;;4936422;29;20048;-77
2023/01/07 07:20:45;;;;;;;12.13;8.40;;;10.00;99.90;;;;;;4920723;29;20055;-77
2023/01/07 07:23:11;;;;;;;12.20;8.70;;;10.00;99.90;;;;;;4949060;29;20082;-77
2023/01/07 07:25:37;;;;;;;12.38;8.60;;;10.00;99.90;;;;;;4920854;29;20083;-78
2023/01/07 07:28:03;;;;;;;12.15;8.18;;;10.00;99.90;;;;;;4920630;29;20073;-78
2023/01/07 07:30:29;;;;;;;13.82;8.50;;;10.00;99.90;;;;;;4938318;29;20047;-78
2023/01/07 07:32:55;;;;;;;11.45;8.52;;;10.00;99.90;;;;;;4922501;29;20072;-78
2023/01/07 07:35:20;;;;;;;12.73;8.70;;;10.00;99.90;;;;;;4917880;29;20084;-78
2023/01/07 07:37:46;;;;;;;12.45;8.85;;;10.00;99.90;;;;;;4930352;29;20401;-77
2023/01/07 07:40:12;;;;;;;10.55;8.23;;;9.90;99.90;;;;;;4936358;29;20403;-76
2023/01/07 07:42:38;;;;;;;11.40;8.52;;;9.90;99.90;;;;;;4936675;29;20044;-77
2023/01/07 07:45:06;;;;;;;11.50;8.57;;;9.90;99.90;;;;;;4936104;29;20143;-78
2023/01/07 07:47:33;;;;;;;12.52;8.48;;;9.90;99.90;;;;;;4919867;29;20055;-78
2023/01/07 07:49:58;;;;;;;12.18;8.40;;;9.80;99.90;;;;;;4914220;29;20119;-77
2023/01/07 07:52:24;;;;;;;12.32;9.05;;;9.80;99.90;;;;;;4948319;29;20069;-77
2023/01/07 07:54:50;;;;;;;11.23;8.02;;;9.80;99.90;;;;;;4936515;29;20491;-77
2023/01/07 07:57:15;;;;;;;11.25;8.35;;;9.80;99.90;;;;;;4919150;29;20079;-76
2023/01/07 07:59:41;;;;;;;12.50;8.02;;;9.80;99.90;;;;;;4936705;29;20051;-77
2023/01/07 08:02:13;;;;;;;13.32;8.23;;;9.90;99.90;;;;;;4935752;29;20043;-77
2023/01/07 08:04:39;;;;;;;11.32;8.15;;;9.80;99.90;;;;;;4935874;29;20048;-76
2023/01/07 08:07:05;;;;;;;12.63;8.52;;;9.80;99.90;;;;;;4935569;29;20047;-76
2023/01/07 08:09:30;;;;;;;11.45;7.78;;;9.80;99.90;;;;;;4936078;29;20359;-76
2023/01/07 08:11:56;;;;;;;12.75;8.27;;;9.80;99.90;;;;;;4920258;29;20054;-76
2023/01/07 08:14:22;;;;;;;11.35;8.10;;;9.80;99.90;;;;;;4936835;29;20044;-78
2023/01/07 08:16:48;;;;;;;11.43;8.27;;;9.80;99.90;;;;;;4936069;29;20102;-77
2023/01/07 08:19:14;;;;;;;10.70;7.35;;;9.80;99.90;;;;;;4919427;29;20047;-77
2023/01/07 08:21:40;;;;;;;10.68;7.05;;;9.80;99.90;;;;;;4937020;29;20126;-76
2023/01/07 08:24:05;;;;;;;10.45;7.25;;;9.80;99.90;;;;;;4934925;29;20091;-78
2023/01/07 08:26:31;;;;;;;10.50;7.07;;;9.80;99.90;;;;;;4935646;29;20055;-75
2023/01/07 08:28:57;;;;;;;10.07;6.45;;;9.70;99.90;;;;;;4935499;29;20452;-77
2023/01/07 08:31:23;;;;;;;10.65;6.75;;;9.80;99.90;;;;;;4935161;29;20050;-76
2023/01/07 08:33:49;;;;;;;9.68;6.35;;;9.80;99.90;;;;;;4935676;29;20047;-77
2023/01/07 08:36:14;;;;;;;10.20;6.38;;;9.80;99.90;;;;;;4935322;29;20087;-77
2023/01/07 08:38:40;;;;;;;9.13;6.30;;;9.90;99.90;;;;;;4918007;29;20460;-77
2023/01/07 08:41:06;;;;;;;9.88;5.90;;;9.90;99.90;;;;;;4935780;29;20056;-77
2023/01/07 08:43:32;;;;;;;9.40;6.00;;;9.90;99.90;;;;;;4934835;29;20492;-77
2023/01/07 08:45:58;;;;;;;8.30;5.40;;;10.00;99.90;;;;;;4934639;29;20055;-77
2023/01/07 08:48:24;;;;;;;8.60;5.57;;;10.00;99.90;;;;;;4934988;29;20405;-77
2023/01/07 08:50:51;;;;;;;8.55;5.35;;;10.10;99.90;;;;;;4938411;29;20035;-77
2023/01/07 08:53:19;;;;;;;7.15;4.75;;;10.10;99.90;;;;;;4944323;29;20141;-76
2023/01/07 08:55:45;;;;;;;8.70;5.18;;;10.10;99.90;;;;;;4935092;29;20090;-77
2023/01/07 08:58:11;;;;;;;8.80;5.18;;;10.10;99.90;;;;;;4900615;29;20084;-77
2023/01/07 09:00:37;;;;;;;7.75;4.82;;;10.10;99.90;;;;;;4931582;29;20040;-78
2023/01/07 09:03:03;;;;;;;9.23;5.05;;;10.20;99.90;;;;;;4919093;29;20055;-79
2023/01/07 09:05:29;;;;;;;8.70;4.88;;;10.20;99.90;;;;;;4934830;29;20055;-77
2023/01/07 09:07:55;;;;;;;9.52;4.80;;;10.40;99.90;;;;;;4934058;29;20044;-78
2023/01/07 09:10:22;;;;;;;6.65;4.50;;;10.50;99.90;;;;;;4935287;29;20072;-78
2023/01/07 09:12:48;;;;;;;8.60;4.50;;;10.50;99.90;;;;;;4934667;29;20510;-78
2023/01/07 09:15:13;;;;;;;7.28;5.28;;;10.60;99.90;;;;;;4934639;29;20087;-78
2023/01/07 09:17:39;;;;;;;10.25;6.97;;;10.60;99.90;;;;;;4934415;29;20043;-78
2023/01/07 09:20:06;;;;;;;9.63;5.43;;;10.70;99.90;;;;;;4899445;29;20054;-77
2023/01/07 09:22:34;;;;;;;7.47;4.30;;;10.70;99.90;;;;;;4926599;29;20060;-76
2023/01/07 09:25:00;;;;;;;7.30;4.40;;;10.80;99.90;;;;;;4935057;29;20511;-77
2023/01/07 09:27:26;;;;;;;8.13;4.65;;;10.60;99.90;;;;;;4915866;29;20054;-78
2023/01/07 09:29:53;;;;;;;7.88;4.82;;;10.60;99.90;;;;;;4935129;29;20050;-74
2023/01/07 09:32:19;;;;;;;7.82;5.07;;;10.60;99.90;;;;;;4934299;29;20055;-76
2023/01/07 09:34:45;;;;;;;7.05;4.53;;;10.40;99.90;;;;;;4934710;29;20110;-79
2023/01/07 09:37:11;;;;;;;6.68;3.67;;;10.40;99.90;;;;;;4933398;29;20489;-77
2023/01/07 09:39:36;;;;;;;7.95;4.07;;;10.40;99.90;;;;;;4932402;29;20052;-76
2023/01/07 09:42:16;;;;;;;5.97;3.58;;;10.40;99.90;;;;;;4934841;29;20051;-78
2023/01/07 09:44:58;;;;;;;6.70;3.22;;;10.40;99.90;;;;;;4918935;29;20086;-78
2023/01/07 09:47:28;;;;;;;6.32;3.00;;;10.40;99.90;;;;;;4934073;29;20098;-78
2023/01/07 09:49:59;;;;;;;5.93;2.83;;;10.40;99.90;;;;;;4934752;29;20083;-78
2023/01/07 09:52:36;;;;;;;6.03;2.80;;;10.50;99.90;;;;;;4934370;29;20118;-78
2023/01/07 09:55:15;;;;;;;6.20;2.70;;;10.50;99.90;;;;;;4935041;29;20043;-76
2023/01/07 09:57:40;;;;;;;6.05;2.85;;;10.50;99.90;;;;;;4921754;29;20060;-79
2023/01/07 10:00:25;;;;;;;4.40;2.20;;;10.50;99.90;;;;;;4934494;29;20110;-74
2023/01/07 10:03:09;;;;;;;5.93;2.50;;;10.60;99.90;;;;;;4922532;29;20063;-78
2023/01/07 10:06:00;;;;;;;5.25;2.20;;;10.60;99.90;;;;;;4933671;29;20059;-77
2023/01/07 10:09:07;;;;;;;4.97;2.13;;;10.60;99.90;;;;;;4933651;29;20106;-77
2023/01/07 10:11:48;;;;;;;5.07;2.40;;;10.70;99.90;;;;;;4869055;29;20102;-78
2023/01/07 10:14:54;;;;;;;5.68;2.25;;;10.70;99.90;;;;;;4943145;28;20060;-76
2023/01/07 10:17:44;;;;;;;5.43;2.05;;;10.80;99.90;;;;;;4934031;29;20051;-77
2023/01/07 10:20:37;;;;;;;5.82;2.22;;;10.80;99.90;;;;;;4924522;29;20130;-77
2023/01/07 10:23:22;;;;;;;5.53;2.38;;;10.90;99.90;;;;;;4933122;29;20091;-77
2023/01/07 10:25:56;;;;;;;6.05;2.15;;;10.90;99.90;;;;;;4934467;29;20074;-78
2023/01/07 10:28:41;;;;;;;4.78;2.10;;;11.00;99.90;;;;;;4933542;29;20540;-78
2023/01/07 10:31:20;;;;;;;5.75;2.35;;;11.00;99.90;;;;;;4932815;29;20083;-77
2023/01/07 10:33:48;;;;;;;5.28;2.08;;;10.90;99.90;;;;;;4937827;29;20493;-77
2023/01/07 10:36:16;;;;;;;6.13;2.20;;;10.90;99.90;;;;;;4937507;29;20370;-78
2023/01/07 10:38:47;;;;;;;4.68;2.10;;;11.00;99.90;;;;;;4936695;29;20055;-79
2023/01/07 10:41:23;;;;;;;5.63;2.10;;;10.90;99.90;;;;;;4937452;29;20067;-80
2023/01/07 10:44:22;;;;;;;4.60;1.90;;;10.90;99.90;;;;;;4922820;29;20048;-74
2023/01/07 10:47:05;;;;;;;4.47;1.80;;;10.90;99.90;;;;;;4921223;29;20530;-77
2023/01/07 10:50:00;;;;;;;4.20;1.85;;;11.00;99.90;;;;;;4943967;28;20110;-79
2023/01/07 10:52:53;;;;;;;3.95;1.70;;;11.00;99.90;;;;;;4939599;28;20403;-77
2023/01/07 10:55:46;;;;;;;5.28;1.90;;;11.00;99.90;;;;;;4940497;28;20047;-77
2023/01/07 10:58:12;;;;;;;5.00;1.73;;;11.00;99.90;;;;;;4940501;29;20050;-80
2023/01/07 11:00:39;;;;;;;4.57;1.77;;;11.00;99.90;;;;;;4940101;28;20043;-78
2023/01/07 11:03:17;;;;;;;4.88;1.85;;;11.00;99.90;;;;;;4940156;29;20051;-77
2023/01/07 11:05:45;;;;;;;5.43;1.73;;;11.00;99.90;;;;;;4940214;28;20126;-78
2023/01/07 11:08:23;;;;;;;4.93;1.88;;;11.00;99.90;;;;;;4939687;29;20395;-76
2023/01/07 11:10:49;;;;;;;4.90;1.80;;;11.00;99.90;;;;;;4940264;28;20051;-78
2023/01/07 11:13:21;;;;;;;4.18;1.70;;;11.00;99.90;;;;;;4955689;28;20098;-79
2023/01/07 11:15:55;;;;;;;4.50;1.80;;;11.10;99.90;;;;;;4940214;28;20047;-76
2023/01/07 11:18:30;;;;;;;6.13;1.73;;;11.10;99.90;;;;;;4939689;29;20047;-79
2023/01/07 11:20:58;;;;;;;4.10;1.80;;;11.10;99.90;;;;;;4944013;28;20062;-79
2023/01/07 11:23:47;;;;;;;5.22;1.85;;;11.10;99.90;;;;;;4923083;29;20055;-79
2023/01/07 11:26:26;;;;;;;4.75;1.90;;;11.00;99.90;;;;;;4939962;28;20542;-79
2023/01/07 11:29:12;;;;;;;5.50;1.73;;;11.10;99.90;;;;;;4939929;29;20118;-81
2023/01/07 11:31:51;;;;;;;5.55;2.10;;;11.00;99.90;;;;;;4924159;29;20050;-79
2023/01/07 11:34:26;;;;;;;5.20;1.90;;;11.00;99.90;;;;;;4939806;29;20130;-76
2023/01/07 11:36:52;;;;;;;4.75;1.70;;;11.00;99.90;;;;;;4943708;28;20078;-79
2023/01/07 11:39:25;;;;;;;3.97;1.60;;;11.00;99.90;;;;;;4935808;29;20047;-79
2023/01/07 11:41:59;;;;;;;4.47;1.88;;;11.10;99.90;;;;;;4956057;28;20376;-76
2023/01/07 11:44:26;;;;;;;5.20;1.80;;;11.00;99.90;;;;;;4944999;28;20125;-78
2023/01/07 11:46:53;;;;;;;4.20;1.70;;;11.10;99.90;;;;;;4920718;29;20477;-79
2023/01/07 11:49:23;;;;;;;4.53;1.70;;;11.10;99.90;;;;;;4938549;29;20055;-79
2023/01/07 11:51:49;;;;;;;4.40;1.80;;;11.10;99.90;;;;;;4939848;29;20051;-81
2023/01/07 11:54:24;;;;;;;5.18;1.80;;;11.00;99.90;;;;;;4938192;29;20506;-78
2023/01/07 11:56:50;;;;;;;4.32;1.70;;;11.10;99.90;;;;;;4939503;29;20143;-79
2023/01/07 11:59:19;;;;;;;4.53;1.80;;;11.10;99.90;;;;;;4938980;29;20040;-78
2023/01/07 12:01:50;;;;;;;5.05;1.70;;;11.10;99.90;;;;;;4923473;29;20058;-80
2023/01/07 12:04:35;;;;;;;6.28;1.88;;;11.10;99.90;;;;;;4938882;29;20126;-77
2023/01/07 12:07:05;;;;;;;4.68;1.65;;;11.10;99.90;;;;;;4938957;29;20131;-78
2023/01/07 12:09:31;;;;;;;4.25;1.55;;;11.10;99.90;;;;;;4939129;29;20058;-77
2023/01/07 12:11:59;;;;;;;4.82;1.80;;;11.20;99.90;;;;;;4939057;29;20476;-78
2023/01/07 12:14:31;;;;;;;3.65;1.55;;;11.30;99.90;;;;;;4922554;29;20082;-78
2023/01/07 12:17:06;;;;;;;;;;;11.30;99.90;;;;;;4929391;29;20062;-78
2023/01/07 12:20:06;;;;;;;3.90;1.50;;;11.30;99.90;;;;;;4952836;28;19923;-80
2023/01/07 12:22:47;;;;;;;4.65;1.60;;;11.20;99.90;;;;;;4938082;28;20080;-79
2023/01/07 12:25:38;;;;;;;3.78;1.45;;;11.20;99.90;;;;;;4949510;29;20043;-76
2023/01/07 12:28:10;;;;;;;4.00;1.50;;;11.20;99.90;;;;;;4948940;29;20047;-79
2023/01/07 12:30:46;;;;;;;;;;;11.30;99.90;;;;;;4931515;29;20066;-76
2023/01/07 12:33:23;;;;;;;5.35;1.80;;;11.30;99.90;;;;;;4938352;29;20397;-77
2023/01/07 12:35:50;;;;;;;3.83;1.50;;;11.30;99.90;;;;;;4938762;29;20051;-79
2023/01/07 12:38:21;;;;;;;3.75;1.50;;;11.40;99.90;;;;;;4954518;28;20503;-76
2023/01/07 12:40:55;;;;;;;3.72;1.60;;;11.50;99.90;;;;;;4938829;29;20403;-77
2023/01/07 12:43:36;;;;;;;3.83;1.60;;;11.60;99.90;;;;;;4952608;29;20499;-75
2023/01/07 12:46:09;;;;;;;4.15;1.60;;;11.60;99.90;;;;;;4938109;29;20567;-78
2023/01/07 12:48:54;;;;;;;4.13;1.60;;;11.60;99.90;;;;;;4938603;29;20073;-78
2023/01/07 12:51:25;;;;;;;4.82;1.70;;;11.60;99.90;;;;;;4919323;29;20056;-76
2023/01/07 12:54:19;;;;;;;3.42;1.42;;;11.60;99.90;;;;;;4937347;28;20050;-77
2023/01/07 12:57:02;;;;;;;4.68;1.75;;;11.50;99.90;;;;;;4938419;29;20404;-80
2023/01/07 12:59:35;;;;;;;4.10;1.88;;;11.50;99.90;;;;;;4925619;29;20051;-79